Time;durP1;ratioP1;P1;durP2;ratioP2;P2;SDS_P1;SDS_P2;PMS_P1;PMS_P2;Temp;Humidity;BMP_temperature;BMP_pressure;BME280_temperature;BME280_humidity;BME280_pressure;Samples;Min_cycle;Max_cycle;Signal;HPM_P1;HPM_P2
2022/10/12 00:00:49;;;;;;;;;;;11.10;77.40;;;;;;2043092;29;19962;-88
2022/10/12 00:01:49;;;;;;;;;;;11.10;77.40;;;;;;2059396;28;19910;-90
2022/10/12 00:02:50;;;;;;;;;;;11.10;77.50;;;;;;2051285;29;19910;-88
2022/10/12 00:03:51;;;;;;;;;;;11.10;77.50;;;;;;2051498;29;20017;-88
2022/10/12 00:04:51;;;;;;;;;;;11.10;77.50;;;;;;2047848;29;19966;-87
2022/10/12 00:06:01;;;;;;;;;;;11.10;77.50;;;;;;2051403;29;19914;-88
2022/10/12 00:07:01;;;;;;;;;;;11.10;77.50;;;;;;2045961;28;19958;-88
2022/10/12 00:08:03;;;;;;;;;;;11.10;77.60;;;;;;2051816;29;20021;-88
2022/10/12 00:09:03;;;;;;;;;;;11.10;77.70;;;;;;2051796;28;20002;-88
2022/10/12 00:10:04;;;;;;;;;;;11.10;77.60;;;;;;2043828;29;19915;-88
2022/10/12 00:11:06;;;;;;;;;;;11.10;77.70;;;;;;2043700;29;19961;-89
2022/10/12 00:12:06;;;;;;;;;;;11.10;77.70;;;;;;2035124;29;19930;-88
2022/10/12 00:13:07;;;;;;;;;;;11.10;77.80;;;;;;2035262;29;19922;-87
2022/10/12 00:14:17;;;;;;;;;;;11.10;77.80;;;;;;2051239;28;20305;-87
2022/10/12 00:15:20;;;;;;;;;;;11.10;77.80;;;;;;2044459;29;19907;-86
2022/10/12 00:16:25;;;;;;;;;;;11.10;77.90;;;;;;2043181;28;20308;-84
2022/10/12 00:17:26;;;;;;;;;;;11.10;77.90;;;;;;2043882;29;19946;-86
2022/10/12 00:18:26;;;;;;;;;;;11.10;77.90;;;;;;2027114;29;20397;-85
2022/10/12 00:19:27;;;;;;;;;;;11.10;78.00;;;;;;2043317;29;20356;-85
2022/10/12 00:20:28;;;;;;;;;;;11.10;78.00;;;;;;2043451;29;19906;-88
2022/10/12 00:21:29;;;;;;;;;;;11.10;78.00;;;;;;2042651;29;19910;-87
2022/10/12 00:22:30;;;;;;;;;;;11.10;78.00;;;;;;2049619;28;19981;-87
2022/10/12 00:23:31;;;;;;;;;;;11.10;78.10;;;;;;2051341;29;19907;-86
2022/10/12 00:24:31;;;;;;;;;;;11.10;78.10;;;;;;2054081;28;19907;-86
2022/10/12 00:25:36;;;;;;;;;;;11.10;78.20;;;;;;2050553;28;19934;-87
2022/10/12 00:26:37;;;;;;;;;;;11.10;78.10;;;;;;2052504;28;19907;-86
2022/10/12 00:27:38;;;;;;;;;;;11.10;78.00;;;;;;2045461;29;20254;-85
2022/10/12 00:28:38;;;;;;;;;;;11.10;78.10;;;;;;2043024;29;19942;-86
2022/10/12 00:29:39;;;;;;;;;;;11.10;78.20;;;;;;2043315;28;19906;-86
2022/10/12 00:30:40;;;;;;;;;;;11.10;78.20;;;;;;2051178;29;20394;-86
2022/10/12 00:31:41;;;;;;;;;;;11.10;78.00;;;;;;2049764;29;19993;-84
2022/10/12 00:32:41;;;;;;;;;;;11.10;77.90;;;;;;2046960;28;19911;-86
2022/10/12 00:33:42;;;;;;;;;;;11.10;77.90;;;;;;2043372;29;19911;-85
2022/10/12 00:34:43;;;;;;;;;;;11.10;78.10;;;;;;2043401;28;20408;-87
2022/10/12 00:35:59;;;;;;;;;;;;;;;;;;;;;
2022/10/12 00:37:04;;;;;;;;;;;11.10;78.20;;;;;;2053858;28;19907;-87
2022/10/12 00:38:04;;;;;;;;;;;11.10;78.20;;;;;;2050910;28;19918;-87
2022/10/12 00:39:07;;;;;;;;;;;11.10;78.00;;;;;;2042406;29;20365;-85
2022/10/12 00:40:08;;;;;;;;;;;11.10;78.00;;;;;;2035823;29;20421;-87
2022/10/12 00:41:09;;;;;;;;;;;11.10;77.90;;;;;;2043379;28;19911;-87
2022/10/12 00:42:11;;;;;;;;;;;11.10;77.90;;;;;;2043259;29;19906;-87
2022/10/12 00:43:42;;;;;;;;;;;11.00;78.10;;;;;;2045375;29;19906;-86
2022/10/12 00:44:44;;;;;;;;;;;11.00;78.20;;;;;;2041723;28;19918;-85
2022/10/12 00:45:45;;;;;;;;;;;11.00;78.40;;;;;;2039607;28;19910;-85
2022/10/12 00:46:46;;;;;;;;;;;11.00;78.30;;;;;;2051288;29;19906;-87
2022/10/12 00:47:56;;;;;;;;;;;11.00;78.40;;;;;;2051254;29;19921;-87
2022/10/12 00:49:24;;;;;;;;;;;11.00;78.40;;;;;;2047573;29;19965;-85
2022/10/12 00:50:46;;;;;;;;;;;11.00;78.40;;;;;;2056688;28;19921;-87
2022/10/12 00:52:33;;;;;;;;;;;11.00;78.30;;;;;;2055231;28;19914;-86
2022/10/12 00:54:15;;;;;;;;;;;11.00;78.10;;;;;;2065188;28;20344;-86
2022/10/12 00:55:44;;;;;;;;;;;11.00;78.20;;;;;;2034459;29;19911;-87
2022/10/12 00:56:55;;;;;;;;;;;11.00;78.20;;;;;;2056088;28;19941;-86
2022/10/12 00:57:57;;;;;;;;;;;11.00;78.30;;;;;;2057826;28;19996;-86
2022/10/12 00:59:00;;;;;;;;;;;11.00;78.40;;;;;;2042672;28;20002;-85
2022/10/12 01:00:04;;;;;;;;;;;11.00;78.50;;;;;;2050853;28;19960;-85
2022/10/12 01:01:06;;;;;;;;;;;11.00;78.60;;;;;;2055366;28;20412;-87
2022/10/12 01:02:10;;;;;;;;;;;11.00;78.50;;;;;;2058949;28;19948;-85
2022/10/12 01:03:17;;;;;;;;;;;11.00;78.60;;;;;;2058947;28;19917;-87
2022/10/12 01:04:17;;;;;;;;;;;11.10;78.70;;;;;;2050752;28;19906;-86
2022/10/12 01:05:19;;;;;;;;;;;11.00;78.70;;;;;;2050348;28;20368;-87
2022/10/12 01:06:19;;;;;;;;;;;11.10;78.70;;;;;;2050818;28;19928;-85
2022/10/12 01:07:23;;;;;;;;;;;11.10;78.70;;;;;;2050815;29;19990;-87
2022/10/12 01:08:24;;;;;;;;;;;11.10;78.70;;;;;;2048813;28;20260;-86
2022/10/12 01:09:28;;;;;;;;;;;11.00;78.80;;;;;;2048690;29;19921;-87
2022/10/12 01:10:29;;;;;;;;;;;11.10;78.90;;;;;;2051744;28;19959;-87
2022/10/12 01:11:30;;;;;;;;;;;11.10;78.90;;;;;;2051517;28;20001;-85
2022/10/12 01:12:31;;;;;;;;;;;11.10;78.90;;;;;;2054539;28;20394;-86
2022/10/12 01:13:32;;;;;;;;;;;11.10;78.90;;;;;;2050608;28;20257;-85
2022/10/12 01:14:33;;;;;;;;;;;11.10;78.90;;;;;;2044635;28;20273;-87
2022/10/12 01:15:57;;;;;;;;;;;11.00;78.80;;;;;;2050822;28;19918;-85
2022/10/12 01:17:04;;;;;;;;;;;11.10;78.80;;;;;;2032350;29;19973;-86
2022/10/12 01:18:09;;;;;;;;;;;11.10;78.70;;;;;;2051794;28;20234;-85
2022/10/12 01:23:43;;;;;;;;;;;11.00;78.60;;;;;;2067467;28;19917;-86
2022/10/12 01:25:04;;;;;;;;;;;11.10;78.60;;;;;;2058840;28;19921;-87
2022/10/12 01:26:33;;;;;;;;;;;11.00;78.60;;;;;;2052495;28;20001;-87
2022/10/12 01:27:42;;;;;;;;;;;11.00;78.60;;;;;;2045034;29;19921;-86
2022/10/12 01:28:45;;;;;;;;;;;11.00;78.80;;;;;;2037152;29;19907;-86
2022/10/12 01:29:52;;;;;;;;;;;11.00;78.90;;;;;;2041339;29;19910;-87
2022/10/12 01:30:57;;;;;;;;;;;11.00;78.90;;;;;;2043139;28;19915;-85
2022/10/12 01:32:03;;;;;;;;;;;11.10;79.10;;;;;;2050801;28;19915;-85
2022/10/12 01:33:08;;;;;;;;;;;11.10;79.10;;;;;;2052184;28;19938;-85
2022/10/12 01:34:12;;;;;;;;;;;11.10;79.10;;;;;;2036692;29;19918;-85
2022/10/12 01:35:32;;;;;;;;;;;11.10;79.20;;;;;;2044474;28;19954;-85
2022/10/12 01:36:38;;;;;;;;;;;11.10;79.20;;;;;;2064574;28;20022;-87
2022/10/12 01:37:46;;;;;;;;;;;11.10;79.20;;;;;;2051856;28;19917;-86
2022/10/12 01:39:04;;;;;;;;;;;11.10;79.20;;;;;;2041756;28;19910;-86
2022/10/12 01:40:34;;;;;;;;;;;11.10;79.20;;;;;;2061938;28;19917;-84
2022/10/12 01:41:45;;;;;;;;;;;11.10;79.20;;;;;;2051018;28;20035;-86
2022/10/12 01:42:46;;;;;;;;;;;11.10;79.10;;;;;;2037014;29;19931;-86
2022/10/12 01:43:48;;;;;;;;;;;11.10;79.00;;;;;;2042950;28;20290;-85
2022/10/12 01:44:49;;;;;;;;;;;11.10;79.10;;;;;;2042487;28;19910;-85
2022/10/12 01:45:50;;;;;;;;;;;11.10;79.00;;;;;;2044725;28;19997;-87
2022/10/12 01:46:53;;;;;;;;;;;11.10;78.90;;;;;;2049650;29;19914;-86
2022/10/12 01:47:54;;;;;;;;;;;11.00;78.80;;;;;;2050873;28;19906;-86
2022/10/12 01:49:07;;;;;;;;;;;11.10;79.00;;;;;;2051088;28;20025;-86
2022/10/12 01:50:10;;;;;;;;;;;11.10;79.10;;;;;;2060122;28;19932;-85
2022/10/12 01:51:15;;;;;;;;;;;11.10;79.20;;;;;;2057717;28;19918;-88
2022/10/12 01:52:19;;;;;;;;;;;11.10;79.10;;;;;;2049619;28;19915;-89
2022/10/12 01:53:26;;;;;;;;;;;11.00;79.00;;;;;;2050311;28;19918;-88
2022/10/12 01:54:39;;;;;;;;;;;11.00;79.10;;;;;;2050300;28;20345;-89
2022/10/12 01:55:48;;;;;;;;;;;11.10;79.30;;;;;;2049499;28;20331;-89
2022/10/12 01:57:02;;;;;;;;;;;11.00;79.30;;;;;;2066711;28;19977;-89
2022/10/12 01:58:21;;;;;;;;;;;11.00;79.30;;;;;;2059802;28;20029;-90
2022/10/12 01:59:41;;;;;;;;;;;11.00;79.30;;;;;;2062325;28;20595;-89
2022/10/12 02:00:47;;;;;;;;;;;11.00;79.20;;;;;;2051032;28;20029;-89
2022/10/12 02:02:02;;;;;;;;;;;11.00;79.20;;;;;;2045504;29;19979;-89
2022/10/12 02:03:21;;;;;;;;;;;11.00;79.10;;;;;;2046625;28;19982;-90
2022/10/12 02:04:32;;;;;;;;;;;11.00;79.10;;;;;;2053050;28;19949;-90
2022/10/12 02:05:33;;;;;;;;;;;11.00;79.30;;;;;;2059554;28;19917;-90
2022/10/12 02:06:37;;;;;;;;;;;11.00;79.20;;;;;;2066568;28;20341;-89
2022/10/12 02:07:42;;;;;;;;;;;11.00;79.20;;;;;;2044415;29;19911;-89
2022/10/12 02:09:01;;;;;;;;;;;11.00;79.20;;;;;;2045120;29;19938;-89
2022/10/12 02:10:04;;;;;;;;;;;11.00;79.30;;;;;;2046581;28;19910;-89
2022/10/12 02:11:06;;;;;;;;;;;11.00;79.20;;;;;;2050543;28;20068;-88
2022/10/12 02:12:11;;;;;;;;;;;11.00;79.30;;;;;;2042111;29;19914;-89
2022/10/12 02:13:13;;;;;;;;;;;11.00;79.30;;;;;;2043842;28;20367;-89
2022/10/12 02:14:16;;;;;;;;;;;11.00;79.30;;;;;;2054071;28;19957;-88
2022/10/12 02:15:17;;;;;;;;;;;11.00;79.20;;;;;;2052121;28;19910;-88
2022/10/12 02:16:19;;;;;;;;;;;11.00;79.20;;;;;;2050374;28;19918;-88
2022/10/12 02:17:21;;;;;;;;;;;11.00;79.30;;;;;;2050452;28;20020;-89
2022/10/12 02:18:23;;;;;;;;;;;11.00;79.30;;;;;;2042045;29;19907;-88
2022/10/12 02:19:25;;;;;;;;;;;11.00;79.30;;;;;;2057843;28;20383;-90
2022/10/12 02:20:26;;;;;;;;;;;11.00;79.40;;;;;;2058431;28;19909;-88
2022/10/12 02:21:29;;;;;;;;;;;11.00;79.40;;;;;;2058666;28;19914;-88
2022/10/12 02:22:33;;;;;;;;;;;11.00;79.40;;;;;;2055702;28;19910;-88
2022/10/12 02:23:33;;;;;;;;;;;11.00;79.40;;;;;;2058679;28;19914;-88
2022/10/12 02:24:35;;;;;;;;;;;11.00;79.40;;;;;;2050427;29;20355;-90
2022/10/12 02:25:37;;;;;;;;;;;11.00;79.40;;;;;;2050174;28;19977;-88
2022/10/12 02:26:41;;;;;;;;;;;11.00;79.40;;;;;;2058705;28;20317;-88
2022/10/12 02:27:43;;;;;;;;;;;11.00;79.30;;;;;;2050946;28;19918;-88
2022/10/12 02:28:44;;;;;;;;;;;11.00;79.30;;;;;;2042629;29;19965;-89
2022/10/12 02:29:45;;;;;;;;;;;10.90;79.30;;;;;;2050386;29;20268;-88
2022/10/12 02:31:05;;;;;;;;;;;10.90;79.40;;;;;;2042676;29;19907;-88
2022/10/12 02:32:26;;;;;;;;;;;10.90;79.40;;;;;;2044504;29;20017;-89
2022/10/12 02:33:42;;;;;;;;;;;10.90;79.50;;;;;;2045698;29;19977;-88
2022/10/12 02:34:42;;;;;;;;;;;10.90;79.40;;;;;;2054098;28;19954;-88
2022/10/12 02:35:50;;;;;;;;;;;10.90;79.50;;;;;;2050306;29;19906;-89
2022/10/12 02:37:00;;;;;;;;;;;10.90;79.50;;;;;;2052255;28;19918;-89
2022/10/12 02:38:03;;;;;;;;;;;10.90;79.60;;;;;;2051615;28;19910;-89
2022/10/12 02:39:06;;;;;;;;;;;10.90;79.50;;;;;;2049808;28;19907;-88
2022/10/12 02:40:16;;;;;;;;;;;10.90;79.50;;;;;;2035041;29;19959;-88
2022/10/12 02:41:21;;;;;;;;;;;10.90;79.60;;;;;;2043829;28;19916;-88
2022/10/12 02:42:25;;;;;;;;;;;10.90;79.70;;;;;;2051155;28;19919;-88
2022/10/12 02:43:35;;;;;;;;;;;10.90;79.70;;;;;;2058231;28;19910;-90
2022/10/12 02:44:37;;;;;;;;;;;10.90;79.80;;;;;;2050561;28;19922;-88
2022/10/12 02:45:39;;;;;;;;;;;10.90;79.80;;;;;;2042138;29;19945;-89
2022/10/12 02:46:41;;;;;;;;;;;10.90;79.90;;;;;;2049909;28;19949;-90
2022/10/12 02:47:42;;;;;;;;;;;10.90;79.80;;;;;;2050696;28;19906;-88
2022/10/12 02:48:43;;;;;;;;;;;10.90;79.70;;;;;;2042393;29;19906;-90
2022/10/12 02:49:44;;;;;;;;;;;10.90;79.80;;;;;;2050395;28;19916;-89
2022/10/12 02:50:46;;;;;;;;;;;10.90;79.90;;;;;;2050490;29;19906;-90
2022/10/12 02:51:47;;;;;;;;;;;10.90;79.90;;;;;;2034657;29;19907;-90
2022/10/12 02:52:49;;;;;;;;;;;10.90;79.90;;;;;;2042624;28;19922;-88
2022/10/12 02:53:49;;;;;;;;;;;10.90;79.90;;;;;;2042721;29;19950;-90
2022/10/12 02:54:50;;;;;;;;;;;10.90;79.90;;;;;;2054874;28;19906;-89
2022/10/12 02:56:19;;;;;;;;;;;10.90;79.90;;;;;;2050571;28;19912;-87
2022/10/12 02:57:20;;;;;;;;;;;10.90;79.90;;;;;;2049120;28;19906;-86
2022/10/12 02:58:28;;;;;;;;;;;10.90;79.90;;;;;;2041759;29;20009;-87
2022/10/12 02:59:29;;;;;;;;;;;10.90;80.10;;;;;;2051032;28;19917;-87
2022/10/12 03:00:32;;;;;;;;;;;10.90;80.10;;;;;;2050382;28;19925;-87
2022/10/12 03:01:33;;;;;;;;;;;10.90;80.20;;;;;;2053549;28;19941;-86
2022/10/12 03:02:33;;;;;;;;;;;10.90;80.20;;;;;;2042501;29;19974;-86
2022/10/12 03:03:34;;;;;;;;;;;10.90;80.10;;;;;;2039279;29;20373;-86
2022/10/12 03:04:35;;;;;;;;;;;10.90;80.20;;;;;;2050467;29;19906;-86
2022/10/12 03:05:36;;;;;;;;;;;10.90;80.20;;;;;;2049663;28;19914;-85
2022/10/12 03:06:37;;;;;;;;;;;10.90;80.20;;;;;;2054399;28;19963;-85
2022/10/12 03:07:37;;;;;;;;;;;10.90;80.20;;;;;;2044087;28;20345;-87
2022/10/12 03:08:38;;;;;;;;;;;10.90;80.30;;;;;;2057003;28;19910;-87
2022/10/12 03:09:51;;;;;;;;;;;10.90;80.30;;;;;;2051561;28;20029;-86
2022/10/12 03:10:59;;;;;;;;;;;10.90;80.40;;;;;;2045604;29;20277;-87
2022/10/12 03:12:24;;;;;;;;;;;10.90;80.30;;;;;;2058461;28;20176;-86
2022/10/12 03:13:33;;;;;;;;;;;11.00;80.40;;;;;;2056766;28;19906;-85
2022/10/12 03:14:39;;;;;;;;;;;11.00;80.40;;;;;;2059580;28;20005;-87
2022/10/12 03:15:51;;;;;;;;;;;10.90;80.40;;;;;;2062503;28;19956;-86
2022/10/12 03:16:52;;;;;;;;;;;10.90;80.40;;;;;;2052544;28;20005;-86
2022/10/12 03:17:53;;;;;;;;;;;11.00;80.60;;;;;;2051896;28;19910;-87
2022/10/12 03:18:54;;;;;;;;;;;11.00;80.60;;;;;;2050794;29;19917;-86
2022/10/12 03:19:54;;;;;;;;;;;11.00;81.40;;;;;;2051812;29;19907;-86
2022/10/12 03:20:55;;;;;;;;;;;11.00;80.60;;;;;;2045116;28;19918;-86
2022/10/12 03:21:56;;;;;;;;;;;11.00;80.60;;;;;;2043903;29;19906;-86
2022/10/12 03:22:56;;;;;;;;;;;11.00;80.60;;;;;;2051096;28;19911;-87
2022/10/12 03:23:57;;;;;;;;;;;11.00;80.60;;;;;;2051762;29;19914;-87
2022/10/12 03:24:59;;;;;;;;;;;11.00;80.70;;;;;;2050890;29;19917;-86
2022/10/12 03:25:59;;;;;;;;;;;11.00;80.70;;;;;;2043671;29;19911;-85
2022/10/12 03:27:00;;;;;;;;;;;11.00;80.70;;;;;;2051345;29;20002;-86
2022/10/12 03:28:01;;;;;;;;;;;11.00;80.70;;;;;;2059757;28;19948;-85
2022/10/12 03:29:02;;;;;;;;;;;11.00;80.60;;;;;;2057746;28;19976;-86
2022/10/12 03:30:08;;;;;;;;;;;11.00;80.60;;;;;;2043896;29;19922;-85
2022/10/12 03:31:24;;;;;;;;;;;11.00;80.70;;;;;;2038426;29;19958;-87
2022/10/12 03:32:25;;;;;;;;;;;11.00;80.80;;;;;;2043292;28;19954;-86
2022/10/12 03:33:26;;;;;;;;;;;10.90;80.80;;;;;;2059804;28;19977;-86
2022/10/12 03:34:26;;;;;;;;;;;11.00;80.70;;;;;;2051556;28;19907;-87
2022/10/12 03:35:27;;;;;;;;;;;11.00;80.80;;;;;;2041775;29;19910;-86
2022/10/12 03:36:29;;;;;;;;;;;10.90;80.80;;;;;;2043610;28;19977;-85
2022/10/12 03:37:30;;;;;;;;;;;10.90;80.90;;;;;;2051542;28;19910;-87
2022/10/12 03:38:30;;;;;;;;;;;11.00;80.90;;;;;;2035529;29;19911;-86
2022/10/12 03:39:31;;;;;;;;;;;11.00;80.90;;;;;;2051018;28;19969;-86
2022/10/12 03:40:32;;;;;;;;;;;11.00;81.00;;;;;;2050984;28;19914;-88
2022/10/12 03:41:35;;;;;;;;;;;11.00;81.00;;;;;;2044465;29;19915;-87
2022/10/12 03:42:39;;;;;;;;;;;11.00;81.60;;;;;;2051860;28;19925;-86
2022/10/12 03:43:39;;;;;;;;;;;11.00;81.10;;;;;;2036690;29;20368;-88
2022/10/12 03:44:40;;;;;;;;;;;11.00;80.90;;;;;;2053065;28;19906;-86
2022/10/12 03:45:41;;;;;;;;;;;11.00;81.00;;;;;;2056797;28;20328;-87
2022/10/12 03:46:42;;;;;;;;;;;11.00;81.10;;;;;;2051628;28;19910;-87
2022/10/12 03:47:43;;;;;;;;;;;11.00;81.20;;;;;;2057123;28;19940;-85
2022/10/12 03:48:43;;;;;;;;;;;11.00;81.10;;;;;;2043756;29;19911;-86
2022/10/12 03:49:44;;;;;;;;;;;11.00;81.20;;;;;;2051206;28;19914;-87
2022/10/12 03:50:48;;;;;;;;;;;11.00;81.20;;;;;;2053407;28;19910;-86
2022/10/12 03:51:49;;;;;;;;;;;11.00;81.30;;;;;;2058698;28;19914;-86
2022/10/12 03:52:49;;;;;;;;;;;11.00;81.40;;;;;;2062863;28;19906;-85
2022/10/12 03:53:50;;;;;;;;;;;11.00;81.30;;;;;;2051490;29;19934;-86
2022/10/12 03:54:51;;;;;;;;;;;11.00;81.20;;;;;;2059337;28;20356;-86
2022/10/12 03:55:52;;;;;;;;;;;11.00;81.20;;;;;;2059456;28;20053;-86
2022/10/12 03:56:53;;;;;;;;;;;11.00;81.10;;;;;;2056157;28;19906;-86
2022/10/12 03:57:53;;;;;;;;;;;11.00;81.10;;;;;;2040187;29;20345;-87
2022/10/12 03:58:54;;;;;;;;;;;11.00;81.20;;;;;;2042533;29;19914;-86
2022/10/12 03:59:55;;;;;;;;;;;11.00;81.10;;;;;;2051457;28;20260;-87
2022/10/12 04:00:58;;;;;;;;;;;11.00;81.20;;;;;;2035698;29;19919;-86
2022/10/12 04:02:08;;;;;;;;;;;11.00;81.20;;;;;;2036736;29;19922;-87
2022/10/12 04:03:08;;;;;;;;;;;11.00;81.20;;;;;;2029144;29;19918;-86
2022/10/12 04:04:09;;;;;;;;;;;11.00;81.30;;;;;;2043248;29;19917;-86
2022/10/12 04:05:10;;;;;;;;;;;11.00;81.20;;;;;;2050811;29;19962;-86
2022/10/12 04:06:11;;;;;;;;;;;11.00;81.20;;;;;;2051417;28;19915;-85
2022/10/12 04:07:12;;;;;;;;;;;11.00;81.30;;;;;;2051449;29;19986;-87
2022/10/12 04:08:16;;;;;;;;;;;11.00;81.20;;;;;;2043935;29;19915;-87
2022/10/12 04:09:17;;;;;;;;;;;11.00;81.10;;;;;;2051002;29;19921;-85
2022/10/12 04:10:18;;;;;;;;;;;11.00;81.20;;;;;;2038740;29;19947;-86
2022/10/12 04:11:19;;;;;;;;;;;11.00;81.20;;;;;;2035604;29;19934;-85
2022/10/12 04:12:20;;;;;;;;;;;11.00;81.30;;;;;;2042501;29;19922;-87
2022/10/12 04:13:20;;;;;;;;;;;11.00;81.30;;;;;;2051311;29;19918;-87
2022/10/12 04:14:21;;;;;;;;;;;11.00;81.30;;;;;;2043527;29;19911;-87
2022/10/12 04:15:22;;;;;;;;;;;11.00;81.30;;;;;;2043297;29;19915;-86
2022/10/12 04:16:22;;;;;;;;;;;11.00;81.30;;;;;;2051403;28;20022;-85
2022/10/12 04:17:23;;;;;;;;;;;11.00;81.30;;;;;;2050481;28;19910;-87
2022/10/12 04:18:24;;;;;;;;;;;11.00;81.30;;;;;;2042726;29;19907;-86
2022/10/12 04:19:25;;;;;;;;;;;11.00;81.30;;;;;;2035515;29;20316;-86
2022/10/12 04:20:25;;;;;;;;;;;10.90;81.20;;;;;;2035603;29;20023;-85
2022/10/12 04:21:30;;;;;;;;;;;11.00;81.40;;;;;;2035688;29;19911;-86
2022/10/12 04:22:31;;;;;;;;;;;11.00;81.40;;;;;;2047536;29;19911;-86
2022/10/12 04:23:32;;;;;;;;;;;11.00;81.40;;;;;;2035569;29;19915;-86
2022/10/12 04:24:33;;;;;;;;;;;11.00;81.40;;;;;;2047070;28;20237;-86
2022/10/12 04:25:34;;;;;;;;;;;11.00;81.30;;;;;;2046210;28;19922;-86
2022/10/12 04:26:35;;;;;;;;;;;11.00;81.30;;;;;;2030948;28;19911;-86
2022/10/12 04:27:36;;;;;;;;;;;11.00;81.40;;;;;;2035417;29;19948;-86
2022/10/12 04:28:36;;;;;;;;;;;10.90;81.30;;;;;;2043365;29;19945;-85
2022/10/12 04:29:40;;;;;;;;;;;11.00;81.30;;;;;;2050914;29;19920;-87
2022/10/12 04:30:41;;;;;;;;;;;11.00;81.40;;;;;;2033563;29;19922;-86
2022/10/12 04:31:42;;;;;;;;;;;11.00;81.70;;;;;;2034840;29;19917;-85
2022/10/12 04:32:42;;;;;;;;;;;11.00;81.80;;;;;;2050878;29;19918;-88
2022/10/12 04:33:43;;;;;;;;;;;11.00;81.70;;;;;;2051319;29;19917;-87
2022/10/12 04:34:44;;;;;;;;;;;11.00;81.60;;;;;;2046340;28;20416;-86
2022/10/12 04:35:44;;;;;;;;;;;11.00;81.60;;;;;;2037829;29;20373;-87
2022/10/12 04:36:45;;;;;;;;;;;11.00;81.60;;;;;;2043332;29;19946;-87
2022/10/12 04:37:46;;;;;;;;;;;11.00;81.70;;;;;;2035117;29;19939;-85
2022/10/12 04:38:47;;;;;;;;;;;11.00;81.60;;;;;;2033655;29;19907;-86
2022/10/12 04:39:47;;;;;;;;;;;11.00;81.50;;;;;;2035352;29;20011;-85
2022/10/12 04:40:48;;;;;;;;;;;11.00;81.60;;;;;;2041310;29;19911;-87
2022/10/12 04:41:49;;;;;;;;;;;11.00;81.70;;;;;;2043321;29;20005;-86
2022/10/12 04:42:49;;;;;;;;;;;11.00;81.80;;;;;;2043385;29;20313;-86
2022/10/12 04:43:51;;;;;;;;;;;11.00;81.70;;;;;;2043901;29;19907;-86
2022/10/12 04:44:52;;;;;;;;;;;11.00;81.70;;;;;;2042790;29;19914;-85
2022/10/12 04:45:57;;;;;;;;;;;11.00;81.70;;;;;;2051544;28;20354;-85
2022/10/12 04:46:59;;;;;;;;;;;11.00;81.70;;;;;;2050891;28;19910;-86
2022/10/12 04:47:59;;;;;;;;;;;11.00;81.80;;;;;;2058251;28;19910;-87
2022/10/12 04:49:00;;;;;;;;;;;11.00;81.70;;;;;;2049913;29;19916;-88
2022/10/12 04:50:01;;;;;;;;;;;11.00;81.80;;;;;;2043339;28;19958;-87
2022/10/12 04:51:01;;;;;;;;;;;11.00;81.80;;;;;;2031332;29;19962;-86
2022/10/12 04:52:02;;;;;;;;;;;11.00;81.80;;;;;;2034563;29;20328;-86
2022/10/12 04:53:03;;;;;;;;;;;11.00;81.80;;;;;;2034819;29;19993;-87
2022/10/12 04:54:03;;;;;;;;;;;11.00;81.90;;;;;;2036086;29;19918;-87
2022/10/12 04:55:05;;;;;;;;;;;11.00;81.80;;;;;;2043054;29;19946;-87
2022/10/12 04:56:14;;;;;;;;;;;11.00;81.90;;;;;;2031645;29;19921;-85
2022/10/12 04:57:15;;;;;;;;;;;11.00;81.90;;;;;;2046811;28;20401;-85
2022/10/12 04:58:16;;;;;;;;;;;11.00;81.90;;;;;;2050196;28;19977;-86
2022/10/12 04:59:17;;;;;;;;;;;11.00;81.90;;;;;;2035086;29;19917;-85
2022/10/12 05:00:28;;;;;;;;;;;11.00;82.10;;;;;;2048024;28;19914;-85
2022/10/12 05:01:29;;;;;;;;;;;11.00;82.00;;;;;;2050494;29;19969;-86
2022/10/12 05:02:30;;;;;;;;;;;11.00;82.00;;;;;;2043290;29;19915;-88
2022/10/12 05:03:30;;;;;;;;;;;11.00;82.00;;;;;;2049204;29;20412;-85
2022/10/12 05:04:31;;;;;;;;;;;11.00;82.00;;;;;;2043014;29;19921;-87
2022/10/12 05:05:33;;;;;;;;;;;11.00;81.90;;;;;;2044545;29;19994;-86
2022/10/12 05:06:34;;;;;;;;;;;11.00;82.00;;;;;;2048919;29;19914;-86
2022/10/12 05:07:34;;;;;;;;;;;11.00;82.00;;;;;;2036973;29;19979;-85
2022/10/12 05:08:40;;;;;;;;;;;11.00;82.00;;;;;;2047973;29;19953;-86
2022/10/12 05:09:41;;;;;;;;;;;11.00;82.00;;;;;;2052125;28;19945;-85
2022/10/12 05:10:42;;;;;;;;;;;11.00;82.10;;;;;;2051200;29;19976;-85
2022/10/12 05:11:43;;;;;;;;;;;11.00;82.20;;;;;;2042711;29;20360;-86
2022/10/12 05:12:44;;;;;;;;;;;11.00;82.10;;;;;;2035471;29;19919;-85
2022/10/12 05:13:44;;;;;;;;;;;11.00;82.10;;;;;;2051422;29;19917;-86
2022/10/12 05:14:45;;;;;;;;;;;11.00;82.20;;;;;;2047605;29;19906;-86
2022/10/12 05:15:46;;;;;;;;;;;11.00;82.20;;;;;;2051063;29;19964;-86
2022/10/12 05:16:47;;;;;;;;;;;11.00;82.20;;;;;;2051287;29;20261;-87
2022/10/12 05:17:47;;;;;;;;;;;11.00;82.20;;;;;;2035547;29;19911;-85
2022/10/12 05:18:48;;;;;;;;;;;11.00;82.20;;;;;;2034598;29;19950;-86
2022/10/12 05:19:49;;;;;;;;;;;11.00;82.40;;;;;;2043027;29;19950;-85
2022/10/12 05:20:50;;;;;;;;;;;11.00;82.50;;;;;;2036988;29;19907;-87
2022/10/12 05:21:53;;;;;;;;;;;11.00;82.50;;;;;;2033094;29;20333;-87
2022/10/12 05:22:55;;;;;;;;;;;11.00;82.40;;;;;;2036860;29;19907;-86
2022/10/12 05:23:56;;;;;;;;;;;11.10;82.40;;;;;;2051011;28;19910;-85
2022/10/12 05:24:56;;;;;;;;;;;11.00;82.40;;;;;;2050151;29;20337;-87
2022/10/12 05:25:57;;;;;;;;;;;11.00;82.40;;;;;;2042456;29;19920;-86
2022/10/12 05:26:58;;;;;;;;;;;11.00;82.50;;;;;;2045706;28;19918;-88
2022/10/12 05:27:59;;;;;;;;;;;11.00;82.40;;;;;;2050816;29;19989;-83
2022/10/12 05:28:59;;;;;;;;;;;11.00;82.60;;;;;;2046755;28;20339;-85
2022/10/12 05:30:00;;;;;;;;;;;11.00;82.50;;;;;;2041614;29;19934;-88
2022/10/12 05:31:01;;;;;;;;;;;11.00;82.30;;;;;;2027141;29;19949;-86
2022/10/12 05:32:01;;;;;;;;;;;11.00;82.30;;;;;;2028164;29;19986;-85
2022/10/12 05:33:02;;;;;;;;;;;11.00;82.40;;;;;;2042883;29;19910;-90
2022/10/12 05:34:03;;;;;;;;;;;11.00;82.40;;;;;;2042903;29;19907;-90
2022/10/12 05:35:04;;;;;;;;;;;11.00;82.60;;;;;;2035035;29;20362;-89
2022/10/12 05:36:04;;;;;;;;;;;11.00;82.60;;;;;;2035446;29;19907;-90
2022/10/12 05:37:05;;;;;;;;;;;11.00;82.60;;;;;;2034934;29;19914;-89
2022/10/12 05:38:06;;;;;;;;;;;11.00;82.60;;;;;;2035015;29;19922;-88
2022/10/12 05:39:06;;;;;;;;;;;11.00;82.60;;;;;;2040918;29;19917;-89
2022/10/12 05:40:07;;;;;;;;;;;11.00;82.60;;;;;;2035035;29;19922;-90
2022/10/12 05:41:08;;;;;;;;;;;11.00;82.60;;;;;;2034813;29;19934;-89
2022/10/12 05:42:08;;;;;;;;;;;11.00;82.50;;;;;;2036143;29;19918;-88
2022/10/12 05:43:09;;;;;;;;;;;11.00;82.60;;;;;;2042530;29;19907;-88
2022/10/12 05:44:09;;;;;;;;;;;11.00;82.50;;;;;;2042673;29;19911;-88
2022/10/12 05:45:10;;;;;;;;;;;11.00;83.20;;;;;;2042108;29;19953;-88
2022/10/12 05:46:11;;;;;;;;;;;11.00;82.70;;;;;;2034808;29;19911;-87
2022/10/12 05:47:11;;;;;;;;;;;11.00;82.70;;;;;;2035599;29;20254;-89
2022/10/12 05:48:13;;;;;;;;;;;11.10;82.70;;;;;;2042808;29;20034;-91
2022/10/12 05:49:13;;;;;;;;;;;11.00;82.60;;;;;;2049284;28;19940;-90
2022/10/12 05:50:14;;;;;;;;;;;11.00;82.60;;;;;;2058780;28;19921;-88
2022/10/12 05:51:14;;;;;;;;;;;11.00;82.60;;;;;;2042656;29;19911;-88
2022/10/12 05:52:15;;;;;;;;;;;11.00;82.70;;;;;;2034261;29;19979;-88
2022/10/12 05:53:16;;;;;;;;;;;11.00;82.60;;;;;;2057126;28;19921;-87
2022/10/12 05:54:16;;;;;;;;;;;11.00;82.70;;;;;;2042954;29;20009;-89
2022/10/12 05:55:17;;;;;;;;;;;11.00;82.70;;;;;;2043074;29;20249;-88
2022/10/12 05:56:18;;;;;;;;;;;11.00;82.70;;;;;;2029479;29;19912;-89
2022/10/12 05:57:19;;;;;;;;;;;11.10;82.80;;;;;;2035258;29;19911;-89
2022/10/12 05:58:20;;;;;;;;;;;11.00;82.80;;;;;;2058049;28;19970;-89
2022/10/12 05:59:20;;;;;;;;;;;11.00;82.70;;;;;;2048151;29;19961;-89
2022/10/12 06:00:21;;;;;;;;;;;11.00;82.90;;;;;;2046073;29;19950;-88
2022/10/12 06:01:22;;;;;;;;;;;11.00;82.90;;;;;;2050862;28;19914;-88
2022/10/12 06:02:22;;;;;;;;;;;11.00;82.80;;;;;;2042848;29;19915;-87
2022/10/12 06:03:23;;;;;;;;;;;11.00;83.00;;;;;;2046125;29;19911;-86
2022/10/12 06:04:24;;;;;;;;;;;11.00;82.90;;;;;;2043127;29;19907;-86
2022/10/12 06:05:24;;;;;;;;;;;11.00;82.90;;;;;;2050238;28;19959;-85
2022/10/12 06:06:25;;;;;;;;;;;11.00;82.80;;;;;;2066524;28;20410;-86
2022/10/12 06:07:26;;;;;;;;;;;11.00;83.00;;;;;;2058904;28;20268;-86
2022/10/12 06:08:28;;;;;;;;;;;11.00;83.00;;;;;;2050632;28;19911;-85
2022/10/12 06:09:28;;;;;;;;;;;11.00;83.00;;;;;;2048400;29;20001;-85
2022/10/12 06:10:29;;;;;;;;;;;11.00;83.00;;;;;;2058681;28;19921;-87
2022/10/12 06:11:30;;;;;;;;;;;11.00;83.00;;;;;;2058186;28;19910;-88
2022/10/12 06:12:31;;;;;;;;;;;11.10;83.00;;;;;;2050016;29;19914;-88
2022/10/12 06:13:32;;;;;;;;;;;11.00;83.00;;;;;;2046379;29;19911;-85
2022/10/12 06:14:33;;;;;;;;;;;11.00;83.00;;;;;;2050627;28;20313;-88
2022/10/12 06:15:42;;;;;;;;;;;11.00;83.00;;;;;;2048339;29;19911;-88